Wetterdaten: Juni 2016
Datum Temp Feuchte Luftdruck Regen Wind Richtung Sonnenschein UV Solar Windben
01.06.2016 16,5 C 95 % 1009,6 hPa 8,8 l/m 0,3 km/h N-NO 0,17 h 0,8 UV-I 71 W/m 5,6 km/h
02.06.2016 16,6 C 93 % 1009,8 hPa 5,6 l/m 0,2 km/h SO 3,00 h 1,6 UV-I 187 W/m 4,0 km/h
03.06.2016 18,6 C 80 % 1010,3 hPa 0,2 l/m 1,8 km/h N-NO 6,42 h 3,2 UV-I 369 W/m 6,0 km/h
04.06.2016 19,7 C 73 % 1012,0 hPa 0,0 l/m 0,9 km/h N-NO 9,42 h 3,2 UV-I 417 W/m 4,0 km/h
05.06.2016 21,5 C 68 % 1016,0 hPa 0,0 l/m 1,1 km/h N-NO 11,25 h 3,2 UV-I 422 W/m 4,4 km/h
06.06.2016 20,4 C 74 % 1019,2 hPa 0,0 l/m 1,2 km/h N-NO 9,75 h 3,3 UV-I 411 W/m 4,0 km/h
07.06.2016 20,8 C 65 % 1020,3 hPa 0,0 l/m 0,4 km/h S-SO 9,58 h 3,4 UV-I 429 W/m 3,2 km/h
08.06.2016 16,5 C 76 % 1018,0 hPa 0,0 l/m 1,2 km/h N-NW 10,58 h 3,0 UV-I 383 W/m 4,8 km/h
09.06.2016 13,4 C 86 % 1016,9 hPa 0,0 l/m 0,9 km/h N-NW 3,42 h 1,4 UV-I 184 W/m 2,0 km/h
10.06.2016 15,1 C 69 % 1011,9 hPa 0,0 l/m 0,0 km/h N-NW 11,33 h 3,8 UV-I 469 W/m 0,4 km/h
11.06.2016 16,4 C 65 % 1009,9 hPa 0,0 l/m 0,3 km/h N-NO 4,17 h 2,5 UV-I 285 W/m 1,6 km/h
12.06.2016 14,8 C 90 % 1006,6 hPa 3,0 l/m 0,0 km/h S-SO 1,92 h 1,5 UV-I 154 W/m 0,0 km/h
13.06.2016 14,8 C 93 % 1000,1 hPa 19,4 l/m 0,0 km/h S-SO 3,33 h 1,7 UV-I 194 W/m 0,0 km/h
14.06.2016 14,4 C 90 % 998,1 hPa 15,6 l/m 0,2 km/h S-SW 2,17 h 2,2 UV-I 208 W/m 1,6 km/h
15.06.2016 14,2 C 87 % 999,4 hPa 0,8 l/m 0,5 km/h S 6,33 h 2,5 UV-I 334 W/m 2,0 km/h
16.06.2016 14,3 C 83 % 1002,1 hPa 0,0 l/m 0,6 km/h SO 4,25 h 2,1 UV-I 258 W/m 2,0 km/h
17.06.2016 13,5 C 90 % 1006,5 hPa 1,6 l/m 0,2 km/h S-SW 3,08 h 1,8 UV-I 206 W/m 1,2 km/h
18.06.2016 13,3 C 92 % 1015,1 hPa 7,6 l/m 0,2 km/h S-SW 4,08 h 2,2 UV-I 255 W/m 1,6 km/h
19.06.2016 13,1 C 84 % 1022,2 hPa 6,8 l/m 0,5 km/h NW 3,17 h 1,9 UV-I 214 W/m 4,8 km/h
20.06.2016 14,9 C 85 % 1017,1 hPa 6,4 l/m 2,1 km/h S 7,17 h 3,5 UV-I 342 W/m 6,4 km/h
21.06.2016 17,5 C 87 % 1018,7 hPa 2,4 l/m 0,0 km/h S 3,83 h 2,7 UV-I 257 W/m 0,0 km/h
22.06.2016 20,6 C 80 % 1021,9 hPa 0,0 l/m 0,9 km/h S 8,25 h 3,9 UV-I 384 W/m 4,8 km/h
23.06.2016 25,5 C 66 % 1016,8 hPa 0,0 l/m 3,4 km/h SO 12,92 h 4,6 UV-I 488 W/m 6,4 km/h
24.06.2016 22,7 C 84 % 1015,2 hPa 0,8 l/m 0,5 km/h SO 5,58 h 3,2 UV-I 283 W/m 2,8 km/h
25.06.2016 15,3 C 96 % 1012,5 hPa 21,0 l/m 1,8 km/h N-NW 0,42 h 1,2 UV-I 98 W/m 11,6 km/h
26.06.2016 14,1 C 83 % 1016,4 hPa 0,0 l/m 0,0 km/h S-SW 6,50 h 3,1 UV-I 331 W/m 0,0 km/h
27.06.2016 15,8 C 85 % 1016,8 hPa 2,4 l/m 0,2 km/h S 3,00 h 3,1 UV-I 263 W/m 2,8 km/h
28.06.2016 16,9 C 72 % 1014,7 hPa 0,0 l/m 0,0 km/h SO 8,25 h 3,2 UV-I 377 W/m 0,0 km/h
29.06.2016 17,2 C 68 % 1011,1 hPa 5,2 l/m 2,5 km/h S 7,33 h 3,2 UV-I 377 W/m 6,8 km/h
30.06.2016 17,2 C 83 % 1012,0 hPa 0,6 l/m 1,5 km/h S 2,08 h 1,7 UV-I 153 W/m 4,0 km/h
Min-Datum 20.06.16 10.06.16 14.06.16 17 Tage 01.06.16 - - - - 01.06.16
Min-Zeit 04:20 16:15 18:45 - 00:00 - - - - 00:00
Minimum 5,9 C 33 % 997,1 hPa - 0,0 km/h - - - - 0,0 km/h
Max-Datum 23.06.16 14.06.16 19.06.16 25.06.16 23.06.16 - 23.06.16 21.06.16 17.06.16 24.06.16
Max-Zeit 16:10 05:00 23:30 07:05 13:15 - 20:10 13:50 14:35 00:55
Maximum 31,1 C 99 % 1023,5 hPa 21,0 l/m 22,5 km/h
SO
- 12,83 h 9,1 UV-I 1239 W/m 48,3 km/h
SO
Durchschnitt 16,9 C 81 % 1012,6 hPa #108,2 l/m 0,8 km/h S #172:45 h 2,6 UV-I 293 W/m 3,3 km/h

Durchschnitt Minimum Temp.12,1 C
Durchschnitt Maximum Temp.21,9 C